createdAt,value
2017-03-08T00:00:26.236Z,89.80
2017-03-08T00:00:47.969Z,89.97
2017-03-08T00:01:14.447Z,89.86
2017-03-08T00:01:36.150Z,89.70
2017-03-08T00:02:43.441Z,89.52
2017-03-08T00:03:05.153Z,89.73
2017-03-08T00:03:31.635Z,89.72
2017-03-08T00:03:53.425Z,89.79
2017-03-08T00:05:00.704Z,90.04
2017-03-08T00:05:22.419Z,89.96
2017-03-08T00:05:44.131Z,89.95
2017-03-08T00:06:05.840Z,90.00
2017-03-08T00:06:27.536Z,90.05
2017-03-08T00:06:54.006Z,90.05
2017-03-08T00:07:15.723Z,90.14
2017-03-08T00:07:42.205Z,90.08
2017-03-08T00:08:03.913Z,90.03
2017-03-08T00:08:25.623Z,90.11
2017-03-08T00:08:47.330Z,90.07
2017-03-08T00:09:09.027Z,90.13
2017-03-08T00:09:40.283Z,90.12
2017-03-08T00:10:01.991Z,90.14
2017-03-08T00:10:28.477Z,90.01
2017-03-08T00:10:50.195Z,89.97
2017-03-08T00:11:11.913Z,89.88
2017-03-08T00:12:14.953Z,89.70
2017-03-08T00:12:36.659Z,89.55
2017-03-08T00:13:03.140Z,89.34
2017-03-08T00:13:24.858Z,89.33
2017-03-08T00:13:51.346Z,89.30
2017-03-08T00:14:13.059Z,89.35
2017-03-08T00:14:39.532Z,89.23
2017-03-08T00:15:01.248Z,89.21
2017-03-08T00:15:22.950Z,89.13
2017-03-08T00:15:49.438Z,89.11
2017-03-08T00:16:11.129Z,89.10
2017-03-08T00:16:32.830Z,89.06
2017-03-08T00:16:59.302Z,88.97
2017-03-08T00:17:20.995Z,89.03
2017-03-08T00:17:42.690Z,89.07
2017-03-08T00:18:10.164Z,88.88
2017-03-08T00:18:31.865Z,88.91
2017-03-08T00:18:53.571Z,88.93
2017-03-08T00:19:15.271Z,88.99
2017-03-08T00:19:36.991Z,88.84
2017-03-08T00:20:03.498Z,88.83
2017-03-08T00:20:25.203Z,88.66
2017-03-08T00:21:32.484Z,88.60
2017-03-08T00:21:54.177Z,88.62
2017-03-08T00:22:15.881Z,88.60
2017-03-08T00:22:37.580Z,88.54
2017-03-08T00:22:59.288Z,88.72
2017-03-08T00:23:21.012Z,88.78
2017-03-08T00:23:47.588Z,88.78
2017-03-08T00:24:09.284Z,88.75
2017-03-08T00:24:35.772Z,88.69
2017-03-08T00:24:57.469Z,88.62
2017-03-08T00:25:23.942Z,88.43
2017-03-08T00:25:45.734Z,88.34
2017-03-08T00:26:07.438Z,88.31
2017-03-08T00:27:14.715Z,88.44
2017-03-08T00:27:36.498Z,88.58
2017-03-08T00:28:07.747Z,88.66
2017-03-08T00:28:29.443Z,88.72
2017-03-08T00:28:51.148Z,88.73
2017-03-08T00:29:22.410Z,88.56
2017-03-08T00:29:44.110Z,88.54
2017-03-08T00:30:51.392Z,88.53
2017-03-08T00:31:13.112Z,88.42
2017-03-08T00:31:39.568Z,88.23
2017-03-08T00:32:01.270Z,88.16
2017-03-08T00:32:22.975Z,88.22
2017-03-08T00:32:54.237Z,88.16
2017-03-08T00:33:15.927Z,88.12
2017-03-08T00:33:42.427Z,88.18
2017-03-08T00:34:04.137Z,88.20
2017-03-08T00:34:25.837Z,88.30
2017-03-08T00:34:47.545Z,88.29
2017-03-08T00:35:09.244Z,88.33
2017-03-08T00:35:35.717Z,88.43
2017-03-08T00:35:57.415Z,88.41
2017-03-08T00:36:23.891Z,88.50
2017-03-08T00:36:45.600Z,88.53
2017-03-08T00:37:07.305Z,88.55
2017-03-08T00:37:38.549Z,88.57
2017-03-08T00:38:00.247Z,88.39
2017-03-08T00:38:21.945Z,88.41
2017-03-08T00:38:43.744Z,88.45
2017-03-08T00:39:05.446Z,88.39
2017-03-08T00:39:31.920Z,88.34
2017-03-08T00:39:53.618Z,88.39
2017-03-08T00:40:24.868Z,88.35
2017-03-08T00:40:46.590Z,88.38
2017-03-08T00:41:13.065Z,88.28
2017-03-08T00:41:34.878Z,88.17
2017-03-08T00:41:56.595Z,88.03
2017-03-08T00:42:23.070Z,87.93
2017-03-08T00:42:44.766Z,88.05
2017-03-08T00:43:11.235Z,88.09
2017-03-08T00:43:32.950Z,88.13
2017-03-08T00:43:59.432Z,88.08
2017-03-08T00:44:21.133Z,87.95
2017-03-08T00:44:47.614Z,87.97
2017-03-08T00:45:09.328Z,88.07
2017-03-08T00:45:31.065Z,88.13
2017-03-08T00:45:57.540Z,88.12
2017-03-08T00:46:19.235Z,88.22
2017-03-08T00:46:45.707Z,88.17
2017-03-08T00:47:07.402Z,88.11
2017-03-08T00:47:33.878Z,88.18
2017-03-08T00:47:55.593Z,88.33
2017-03-08T00:48:22.061Z,88.41
2017-03-08T00:48:43.759Z,88.39
2017-03-08T00:49:10.225Z,88.29
2017-03-08T00:49:31.934Z,88.27
2017-03-08T00:49:53.744Z,88.20
2017-03-08T00:50:20.227Z,88.12
2017-03-08T00:50:41.960Z,88.08
2017-03-08T00:51:03.654Z,88.10
2017-03-08T00:51:34.905Z,88.17
2017-03-08T00:51:56.608Z,88.13
2017-03-08T00:52:18.307Z,88.14
2017-03-08T00:52:40.012Z,88.07
2017-03-08T00:53:01.744Z,87.98
2017-03-08T00:53:28.216Z,88.05
2017-03-08T00:53:54.701Z,88.09
2017-03-08T00:54:21.175Z,88.14
2017-03-08T00:54:42.878Z,88.07
2017-03-08T00:55:09.350Z,88.07
2017-03-08T00:55:31.056Z,88.01
2017-03-08T00:55:57.521Z,87.94
2017-03-08T00:56:19.225Z,87.88
2017-03-08T00:56:41.015Z,87.75
2017-03-08T00:57:07.486Z,87.75
2017-03-08T00:57:29.276Z,87.68
2017-03-08T00:57:55.779Z,87.73
2017-03-08T00:58:17.487Z,87.72
2017-03-08T00:58:48.757Z,87.59
2017-03-08T00:59:10.447Z,87.55
2017-03-08T00:59:36.925Z,87.46
2017-03-08T00:59:58.728Z,87.41
2017-03-08T01:00:20.419Z,87.42
2017-03-08T01:00:46.905Z,87.39
2017-03-08T01:01:08.606Z,87.42
2017-03-08T01:01:39.851Z,87.49
2017-03-08T01:02:01.547Z,87.45
2017-03-08T01:02:28.025Z,87.39
2017-03-08T01:02:49.721Z,87.29
2017-03-08T01:03:11.430Z,87.21
2017-03-08T01:03:37.906Z,87.13
2017-03-08T01:03:59.607Z,87.19
2017-03-08T01:04:21.319Z,87.13
2017-03-08T01:04:47.806Z,86.98
2017-03-08T01:05:09.499Z,87.03
2017-03-08T01:05:40.745Z,86.97
2017-03-08T01:06:02.468Z,86.85
2017-03-08T01:06:28.952Z,86.87
2017-03-08T01:06:50.734Z,86.79
2017-03-08T01:07:12.433Z,86.67
2017-03-08T01:07:38.904Z,86.57
2017-03-08T01:08:00.601Z,86.58
2017-03-08T01:08:27.075Z,86.44
2017-03-08T01:08:48.776Z,86.46
2017-03-08T01:09:15.259Z,86.53
2017-03-08T01:09:36.955Z,86.57
2017-03-08T01:09:58.654Z,86.54
2017-03-08T01:10:25.130Z,86.54
2017-03-08T01:10:47.039Z,86.45
2017-03-08T01:11:13.510Z,86.49
2017-03-08T01:11:35.214Z,86.41
2017-03-08T01:11:56.916Z,86.39
2017-03-08T01:12:59.954Z,86.11
2017-03-08T01:13:21.670Z,86.04
2017-03-08T01:13:52.929Z,86.14
2017-03-08T01:14:14.629Z,86.15
2017-03-08T01:14:45.877Z,86.08
2017-03-08T01:15:07.590Z,86.10
2017-03-08T01:15:38.849Z,86.11
2017-03-08T01:16:00.568Z,86.11
2017-03-08T01:16:27.053Z,86.17
2017-03-08T01:16:48.751Z,86.25
2017-03-08T01:17:15.226Z,86.38
2017-03-08T01:17:36.931Z,86.61
2017-03-08T01:18:03.416Z,86.70
2017-03-08T01:18:25.198Z,86.73
2017-03-08T01:18:51.674Z,86.73
2017-03-08T01:19:13.368Z,86.79
2017-03-08T01:19:39.859Z,86.81
2017-03-08T01:20:11.112Z,86.82
2017-03-08T01:20:32.800Z,86.88
2017-03-08T01:21:04.046Z,86.88
2017-03-08T01:21:25.761Z,86.87
2017-03-08T01:22:28.267Z,86.70
2017-03-08T01:22:49.981Z,86.64
2017-03-08T01:23:11.686Z,86.58
2017-03-08T01:23:42.946Z,86.85
2017-03-08T01:24:04.647Z,86.92
2017-03-08T01:24:26.403Z,86.88
2017-03-08T01:24:52.886Z,86.81
2017-03-08T01:25:14.585Z,86.73
2017-03-08T01:25:36.293Z,86.73
2017-03-08T01:25:57.990Z,86.75
2017-03-08T01:26:19.695Z,86.88
2017-03-08T01:26:46.169Z,86.85
2017-03-08T01:27:07.889Z,86.83
2017-03-08T01:27:29.603Z,86.93
2017-03-08T01:28:00.855Z,87.04
2017-03-08T01:28:22.553Z,87.06
2017-03-08T01:28:53.807Z,86.99
2017-03-08T01:29:15.521Z,86.84
2017-03-08T01:29:42.000Z,86.74
2017-03-08T01:30:03.687Z,86.77
2017-03-08T01:30:25.482Z,86.75
2017-03-08T01:30:51.952Z,86.67
2017-03-08T01:31:13.651Z,86.73
2017-03-08T01:31:35.368Z,86.84
2017-03-08T01:32:06.616Z,87.01
2017-03-08T01:32:28.310Z,87.18
2017-03-08T01:32:50.026Z,87.30
2017-03-08T01:33:21.280Z,87.43
2017-03-08T01:33:42.983Z,87.48
2017-03-08T01:34:04.687Z,87.51
2017-03-08T01:34:31.157Z,87.73
2017-03-08T01:34:52.848Z,87.88
2017-03-08T01:35:14.551Z,87.98
2017-03-08T01:35:45.902Z,88.05
2017-03-08T01:36:07.598Z,87.89
2017-03-08T01:36:34.062Z,87.85
2017-03-08T01:36:55.769Z,87.82
2017-03-08T01:37:17.498Z,87.89
2017-03-08T01:37:43.983Z,88.01
2017-03-08T01:38:05.686Z,88.13
2017-03-08T01:38:32.161Z,88.04
2017-03-08T01:38:53.879Z,88.19
2017-03-08T01:39:15.591Z,88.27
2017-03-08T01:40:13.849Z,88.26
2017-03-08T01:40:35.571Z,88.26
2017-03-08T01:40:57.280Z,88.24
2017-03-08T01:41:23.758Z,88.26
2017-03-08T01:41:45.469Z,88.17
2017-03-08T01:42:11.939Z,88.27
2017-03-08T01:42:33.763Z,88.41
2017-03-08T01:42:55.471Z,88.47
2017-03-08T01:43:21.950Z,88.42
2017-03-08T01:44:24.347Z,88.55
2017-03-08T01:44:46.114Z,88.55
2017-03-08T01:45:12.624Z,88.40
2017-03-08T01:45:36.873Z,88.44
2017-03-08T01:45:58.724Z,88.47
2017-03-08T01:46:24.327Z,88.50
2017-03-08T01:47:58.259Z,88.79
2017-03-08T01:48:21.123Z,88.79
2017-03-08T01:49:19.962Z,89.01
2017-03-08T01:49:42.551Z,89.01
2017-03-08T01:51:16.560Z,88.88
2017-03-08T01:51:43.111Z,88.81
2017-03-08T01:52:09.718Z,88.75
2017-03-08T01:52:41.965Z,88.66
2017-03-08T01:54:23.565Z,88.27
2017-03-08T01:54:45.350Z,88.43
2017-03-08T01:55:07.186Z,88.53
2017-03-08T01:55:29.474Z,88.59
2017-03-08T01:56:35.095Z,88.57
2017-03-08T01:56:57.528Z,88.62
2017-03-08T01:57:19.713Z,88.69
2017-03-08T01:57:51.403Z,88.63
2017-03-08T01:58:13.730Z,88.59
2017-03-08T01:58:36.275Z,88.69
2017-03-08T01:58:58.269Z,88.69
2017-03-08T01:59:20.269Z,88.68
2017-03-08T01:59:51.827Z,88.67
2017-03-08T02:00:27.374Z,88.64
2017-03-08T02:00:52.064Z,88.56
2017-03-08T02:01:14.035Z,88.61
2017-03-08T02:01:36.032Z,88.73
2017-03-08T02:02:01.055Z,88.75
2017-03-08T02:02:25.808Z,88.90
2017-03-08T02:02:50.178Z,88.84
2017-03-08T02:03:12.279Z,88.84
2017-03-08T02:03:37.060Z,88.78
2017-03-08T02:03:59.907Z,88.75
2017-03-08T02:04:25.613Z,88.86
2017-03-08T02:04:55.408Z,88.93
2017-03-08T02:05:17.178Z,88.98
2017-03-08T02:06:47.520Z,88.97
2017-03-08T02:07:14.967Z,88.98
2017-03-08T02:07:41.586Z,89.00
2017-03-08T02:08:42.886Z,89.07
2017-03-08T02:10:18.864Z,89.32
2017-03-08T02:10:55.111Z,89.26
2017-03-08T02:12:01.474Z,89.15
2017-03-08T02:12:23.676Z,89.09
2017-03-08T02:12:50.607Z,89.05
2017-03-08T02:13:19.150Z,89.14
2017-03-08T02:13:49.252Z,89.08
2017-03-08T02:14:52.065Z,89.17
2017-03-08T02:15:18.560Z,89.01
2017-03-08T02:16:27.709Z,88.71
2017-03-08T02:17:21.863Z,88.79
2017-03-08T02:18:19.611Z,88.89
2017-03-08T02:18:41.332Z,88.89
2017-03-08T02:19:03.270Z,88.75
2017-03-08T02:19:25.178Z,88.67
2017-03-08T02:20:27.712Z,88.78
2017-03-08T02:20:49.454Z,88.86
2017-03-08T02:21:11.251Z,88.70
2017-03-08T02:21:33.150Z,88.69
2017-03-08T02:21:55.304Z,88.69
2017-03-08T02:22:22.918Z,88.64
2017-03-08T02:22:45.697Z,88.66
2017-03-08T02:23:07.839Z,88.67
2017-03-08T02:23:45.549Z,88.68
2017-03-08T02:24:07.403Z,88.73
2017-03-08T02:24:34.173Z,88.90
2017-03-08T02:24:57.002Z,88.93
2017-03-08T02:25:19.113Z,89.00
2017-03-08T02:25:40.874Z,88.98
2017-03-08T02:26:02.725Z,88.92
2017-03-08T02:26:24.567Z,88.89
2017-03-08T02:26:49.342Z,88.89
2017-03-08T02:27:11.118Z,88.98
2017-03-08T02:27:32.938Z,89.13
2017-03-08T02:27:54.865Z,89.17
2017-03-08T02:28:18.751Z,89.17
2017-03-08T02:28:40.539Z,89.14
2017-03-08T02:29:02.366Z,89.15
2017-03-08T02:29:25.121Z,89.17
2017-03-08T02:29:56.509Z,89.21
2017-03-08T02:30:20.963Z,89.08
2017-03-08T02:31:43.647Z,89.25
2017-03-08T02:32:05.488Z,89.19
2017-03-08T02:33:26.730Z,89.41
2017-03-08T02:33:53.719Z,89.50
2017-03-08T02:34:47.153Z,89.59
2017-03-08T02:35:11.834Z,89.53
2017-03-08T02:35:34.104Z,89.51
2017-03-08T02:35:58.372Z,89.39
2017-03-08T02:36:24.282Z,89.24
2017-03-08T02:36:46.113Z,89.11
2017-03-08T02:37:07.839Z,88.99
2017-03-08T02:37:29.722Z,88.81
2017-03-08T02:37:51.606Z,88.76
2017-03-08T02:38:40.007Z,88.84
2017-03-08T02:40:49.006Z,89.27
2017-03-08T02:41:14.746Z,89.32
2017-03-08T02:41:36.488Z,89.25
2017-03-08T02:41:58.533Z,89.21
2017-03-08T02:42:25.197Z,89.23
2017-03-08T02:42:51.734Z,89.14
2017-03-08T02:43:13.483Z,89.06
2017-03-08T02:43:35.386Z,88.83
2017-03-08T02:43:57.242Z,88.83
2017-03-08T02:44:19.131Z,88.76
2017-03-08T02:45:10.455Z,88.47
2017-03-08T02:45:40.123Z,88.34
2017-03-08T02:46:03.469Z,88.37
2017-03-08T02:46:25.249Z,88.40
2017-03-08T02:46:47.108Z,88.39
2017-03-08T02:47:08.952Z,88.35
2017-03-08T02:47:58.819Z,88.38
2017-03-08T02:48:20.655Z,88.48
2017-03-08T02:48:43.089Z,88.63
2017-03-08T02:49:10.863Z,88.73
2017-03-08T02:49:35.863Z,88.84
2017-03-08T02:49:57.629Z,88.94
2017-03-08T02:50:26.987Z,88.91
2017-03-08T02:50:49.028Z,88.87
2017-03-08T02:51:13.509Z,88.74
2017-03-08T02:51:35.259Z,88.75
2017-03-08T02:53:16.570Z,89.10
2017-03-08T02:53:45.928Z,89.13
2017-03-08T02:54:08.503Z,89.13
2017-03-08T02:54:30.300Z,89.13
2017-03-08T02:54:56.903Z,89.34
2017-03-08T02:55:19.143Z,89.35
2017-03-08T02:56:08.569Z,89.31
2017-03-08T02:56:35.056Z,89.28
2017-03-08T02:56:56.752Z,89.26
2017-03-08T02:57:23.240Z,89.31
2017-03-08T02:57:44.960Z,89.30
2017-03-08T02:58:48.993Z,89.28
2017-03-08T02:59:10.853Z,89.28
2017-03-08T03:00:13.357Z,89.07
2017-03-08T03:00:35.065Z,89.05
2017-03-08T03:01:01.561Z,89.02
2017-03-08T03:01:23.256Z,89.03
2017-03-08T03:02:30.548Z,88.98
2017-03-08T03:02:52.414Z,88.86
2017-03-08T03:03:59.700Z,88.95
2017-03-08T03:04:21.397Z,88.92
2017-03-08T03:04:52.669Z,89.03
2017-03-08T03:05:14.394Z,88.98
2017-03-08T03:06:16.929Z,88.75
2017-03-08T03:06:38.650Z,88.73
2017-03-08T03:07:00.393Z,88.77
2017-03-08T03:07:24.925Z,88.80
2017-03-08T03:07:46.658Z,88.77
2017-03-08T03:08:08.402Z,88.67
2017-03-08T03:08:30.162Z,88.72
2017-03-08T03:08:51.908Z,88.74
2017-03-08T03:09:16.182Z,88.69
2017-03-08T03:09:37.905Z,88.64
2017-03-08T03:10:04.423Z,88.73
2017-03-08T03:11:07.488Z,88.81
2017-03-08T03:11:29.252Z,88.84
2017-03-08T03:12:31.794Z,88.95
2017-03-08T03:12:53.517Z,88.98
2017-03-08T03:13:15.241Z,89.00
2017-03-08T03:13:37.023Z,88.98
2017-03-08T03:13:58.782Z,89.06
2017-03-08T03:14:46.989Z,89.13
2017-03-08T03:15:08.708Z,89.13
2017-03-08T03:15:30.440Z,89.03
2017-03-08T03:15:52.180Z,88.89
2017-03-08T03:16:13.898Z,88.86
2017-03-08T03:16:40.381Z,88.76
2017-03-08T03:17:02.108Z,88.72
2017-03-08T03:17:23.948Z,88.60
2017-03-08T03:17:55.236Z,88.67
2017-03-08T03:18:16.972Z,88.64
2017-03-08T03:18:38.771Z,88.61
2017-03-08T03:19:00.492Z,88.62
2017-03-08T03:19:22.238Z,88.62
2017-03-08T03:19:43.983Z,88.72
2017-03-08T03:20:05.704Z,88.70
2017-03-08T03:20:27.451Z,88.74
2017-03-08T03:20:49.184Z,88.72
2017-03-08T03:21:10.964Z,88.65
2017-03-08T03:21:59.234Z,88.68
2017-03-08T03:22:21.028Z,88.63
2017-03-08T03:22:47.546Z,88.78
2017-03-08T03:23:09.336Z,88.81
2017-03-08T03:23:40.706Z,88.68
2017-03-08T03:24:02.518Z,88.68
2017-03-08T03:24:24.280Z,88.76
2017-03-08T03:24:50.836Z,88.75
2017-03-08T03:25:12.580Z,88.77
2017-03-08T03:26:24.676Z,89.00
2017-03-08T03:26:46.394Z,89.00
2017-03-08T03:27:08.123Z,88.96
2017-03-08T03:27:39.519Z,88.80
2017-03-08T03:28:01.166Z,88.81
2017-03-08T03:28:32.447Z,88.80
2017-03-08T03:28:54.263Z,88.73
2017-03-08T03:29:25.547Z,88.77
2017-03-08T03:29:47.229Z,88.77
2017-03-08T03:30:18.625Z,88.75
2017-03-08T03:30:40.416Z,88.67
2017-03-08T03:31:11.691Z,88.78
2017-03-08T03:31:33.508Z,88.86
2017-03-08T03:31:59.989Z,88.74
2017-03-08T03:32:21.726Z,88.69
2017-03-08T03:33:24.240Z,88.49
2017-03-08T03:33:45.939Z,88.50
2017-03-08T03:34:44.605Z,88.81
2017-03-08T03:35:06.334Z,88.88
2017-03-08T03:36:09.614Z,88.94
2017-03-08T03:36:31.352Z,89.00
2017-03-08T03:37:34.628Z,88.99
2017-03-08T03:37:56.329Z,88.92
2017-03-08T03:38:27.800Z,88.85
2017-03-08T03:38:49.439Z,88.87
2017-03-08T03:39:11.165Z,88.88
2017-03-08T03:39:42.548Z,88.89
2017-03-08T03:40:04.190Z,88.93
2017-03-08T03:40:25.891Z,88.90
2017-03-08T03:40:52.437Z,88.73
2017-03-08T03:41:14.158Z,88.68
2017-03-08T03:41:45.451Z,88.69
2017-03-08T03:42:07.169Z,88.75
2017-03-08T03:42:28.901Z,88.78
2017-03-08T03:43:00.182Z,88.93
2017-03-08T03:43:21.889Z,88.93
2017-03-08T03:43:53.297Z,88.86
2017-03-08T03:44:15.076Z,88.92
2017-03-08T03:44:46.357Z,89.00
2017-03-08T03:45:08.136Z,88.91
2017-03-08T03:45:39.436Z,88.87
2017-03-08T03:46:01.172Z,88.73
2017-03-08T03:46:32.559Z,88.78
2017-03-08T03:46:54.222Z,88.91
2017-03-08T03:47:25.506Z,89.02
2017-03-08T03:47:47.209Z,89.03
2017-03-08T03:48:18.605Z,89.08
2017-03-08T03:48:40.299Z,89.04
2017-03-08T03:49:02.004Z,88.94
2017-03-08T03:49:23.745Z,88.88
2017-03-08T03:49:45.534Z,88.98
2017-03-08T03:50:12.064Z,89.00
2017-03-08T03:50:33.788Z,89.02
2017-03-08T03:51:00.321Z,89.02
2017-03-08T03:51:22.039Z,88.86
2017-03-08T03:51:43.754Z,88.81
2017-03-08T03:52:10.567Z,88.65
2017-03-08T03:52:32.274Z,88.59
2017-03-08T03:52:58.794Z,88.50
2017-03-08T03:53:20.568Z,88.33
2017-03-08T03:53:47.207Z,88.24
2017-03-08T03:54:08.938Z,88.25
2017-03-08T03:54:35.438Z,88.29
2017-03-08T03:54:57.228Z,88.32
2017-03-08T03:55:23.733Z,88.30
2017-03-08T03:55:45.477Z,88.23
2017-03-08T03:56:07.188Z,88.23
2017-03-08T03:57:10.231Z,88.29
2017-03-08T03:57:31.959Z,88.36
2017-03-08T03:58:39.241Z,88.72
2017-03-08T03:59:00.956Z,88.70
2017-03-08T03:59:32.243Z,88.67
2017-03-08T03:59:53.968Z,88.71
2017-03-08T04:00:15.707Z,88.82
2017-03-08T04:00:37.457Z,88.96
2017-03-08T04:00:59.194Z,88.81
2017-03-08T04:01:20.973Z,88.71
2017-03-08T04:01:42.717Z,88.74
2017-03-08T04:02:04.450Z,88.74
2017-03-08T04:02:26.282Z,88.70
2017-03-08T04:02:48.007Z,88.63
2017-03-08T04:03:09.742Z,88.60
2017-03-08T04:03:31.531Z,88.51
2017-03-08T04:03:53.299Z,88.52
2017-03-08T04:04:15.028Z,88.74
2017-03-08T04:04:46.279Z,88.70
2017-03-08T04:05:07.990Z,88.64
2017-03-08T04:05:39.236Z,88.58
2017-03-08T04:06:00.955Z,88.75
2017-03-08T04:06:27.439Z,88.89
2017-03-08T04:06:49.146Z,88.89
2017-03-08T04:07:20.409Z,88.94
2017-03-08T04:07:48.414Z,88.98
2017-03-08T04:08:13.521Z,89.05
2017-03-08T04:08:35.653Z,89.11
2017-03-08T04:09:34.674Z,88.97
2017-03-08T04:10:30.992Z,88.55
2017-03-08T04:12:05.372Z,88.71
2017-03-08T04:12:58.177Z,88.96
2017-03-08T04:13:26.243Z,89.00
2017-03-08T04:13:52.735Z,89.05
2017-03-08T04:14:19.342Z,89.05
2017-03-08T04:14:41.130Z,89.06
2017-03-08T04:15:02.895Z,89.20
2017-03-08T04:15:24.740Z,89.22
2017-03-08T04:15:56.829Z,89.40
2017-03-08T04:16:28.926Z,89.27
2017-03-08T04:16:53.620Z,89.23
2017-03-08T04:17:18.500Z,89.21
2017-03-08T04:17:43.706Z,89.17
2017-03-08T04:19:18.177Z,89.06
2017-03-08T04:20:23.320Z,89.21
2017-03-08T04:21:30.634Z,89.12
2017-03-08T04:21:52.421Z,89.04
2017-03-08T04:22:14.215Z,89.06
2017-03-08T04:22:35.982Z,88.98
2017-03-08T04:22:57.895Z,88.97
2017-03-08T04:23:19.687Z,88.90
2017-03-08T04:23:42.044Z,88.80
2017-03-08T04:24:04.545Z,88.77
2017-03-08T04:24:33.924Z,88.74
2017-03-08T04:25:01.921Z,88.76
2017-03-08T04:25:26.580Z,88.60
2017-03-08T04:25:58.849Z,88.68
2017-03-08T04:26:35.904Z,88.69
2017-03-08T04:26:57.742Z,88.70
2017-03-08T04:27:22.308Z,88.60
2017-03-08T04:27:46.878Z,88.47
2017-03-08T04:28:13.818Z,88.51
2017-03-08T04:28:40.440Z,88.70
2017-03-08T04:29:10.383Z,88.75
2017-03-08T04:29:37.768Z,88.89
2017-03-08T04:30:05.546Z,88.96
2017-03-08T04:30:27.582Z,89.01
2017-03-08T04:30:57.260Z,88.99
2017-03-08T04:31:25.863Z,88.99
2017-03-08T04:31:47.586Z,88.92
2017-03-08T04:32:14.058Z,88.90
2017-03-08T04:32:39.701Z,88.98
2017-03-08T04:33:06.179Z,89.16
2017-03-08T04:33:54.759Z,89.10
2017-03-08T04:34:16.582Z,89.17
2017-03-08T04:34:43.069Z,89.22
2017-03-08T04:35:07.995Z,89.23
2017-03-08T04:35:31.216Z,89.22
2017-03-08T04:36:41.213Z,89.33
2017-03-08T04:37:05.975Z,89.31
2017-03-08T04:37:35.380Z,89.25
2017-03-08T04:38:01.788Z,89.37
2017-03-08T04:38:25.671Z,89.39
2017-03-08T04:38:51.263Z,89.36
2017-03-08T04:39:18.274Z,89.31
2017-03-08T04:39:40.444Z,89.29
2017-03-08T04:40:02.305Z,89.37
2017-03-08T04:40:31.900Z,89.36
2017-03-08T04:40:57.429Z,89.44
2017-03-08T04:41:20.170Z,89.36
2017-03-08T04:41:49.488Z,89.28
2017-03-08T04:42:11.301Z,89.34
2017-03-08T04:42:33.427Z,89.47
2017-03-08T04:42:55.441Z,89.44
2017-03-08T04:43:17.438Z,89.36
2017-03-08T04:43:39.160Z,89.28
2017-03-08T04:44:05.645Z,89.23
2017-03-08T04:44:28.026Z,89.26
2017-03-08T04:44:54.513Z,89.25
2017-03-08T04:45:21.202Z,89.35
2017-03-08T04:45:43.006Z,89.36
2017-03-08T04:46:10.283Z,89.36
2017-03-08T04:46:32.531Z,89.50
2017-03-08T04:47:21.864Z,89.64
2017-03-08T04:47:44.860Z,89.71
2017-03-08T04:48:12.273Z,89.75
2017-03-08T04:48:34.231Z,89.77
2017-03-08T04:48:56.090Z,89.74
2017-03-08T04:49:18.013Z,89.70
2017-03-08T04:49:39.815Z,89.76
2017-03-08T04:50:01.916Z,89.76
2017-03-08T04:50:23.706Z,89.84
2017-03-08T04:50:45.625Z,89.86
2017-03-08T04:51:07.470Z,89.75
2017-03-08T04:51:29.311Z,89.83
2017-03-08T04:51:54.223Z,89.89
2017-03-08T04:52:19.030Z,89.87
2017-03-08T04:52:43.896Z,89.93
2017-03-08T04:53:05.719Z,89.91
2017-03-08T04:53:27.788Z,89.99
2017-03-08T04:53:49.669Z,90.13
2017-03-08T04:54:12.454Z,90.12
2017-03-08T04:54:35.018Z,90.04
2017-03-08T04:54:57.093Z,89.99
2017-03-08T04:55:18.930Z,89.89
2017-03-08T04:55:40.734Z,89.86
2017-03-08T04:56:02.627Z,89.92
2017-03-08T04:56:27.690Z,90.03
2017-03-08T04:56:49.621Z,90.00
2017-03-08T04:57:14.449Z,90.08
2017-03-08T04:57:39.793Z,90.14
2017-03-08T04:58:01.913Z,90.26
2017-03-08T04:58:24.093Z,90.35
2017-03-08T04:58:46.612Z,90.27
2017-03-08T04:59:08.467Z,90.26
2017-03-08T04:59:33.553Z,90.17
2017-03-08T04:59:55.815Z,90.18
2017-03-08T05:00:22.411Z,90.14
2017-03-08T05:00:44.349Z,90.26
2017-03-08T05:01:09.296Z,90.34
2017-03-08T05:01:31.181Z,90.37
2017-03-08T05:01:53.475Z,90.24
2017-03-08T05:02:24.953Z,90.23
2017-03-08T05:02:51.473Z,90.26
2017-03-08T05:03:59.272Z,90.29
2017-03-08T05:04:21.702Z,90.27
2017-03-08T05:04:44.587Z,90.23
2017-03-08T05:05:41.531Z,90.46
2017-03-08T05:06:03.826Z,90.56
2017-03-08T05:06:30.588Z,90.56
2017-03-08T05:06:52.884Z,90.52
2017-03-08T05:07:15.669Z,90.56
2017-03-08T05:07:37.704Z,90.65
2017-03-08T05:08:07.436Z,90.70
2017-03-08T05:09:10.353Z,90.71
2017-03-08T05:09:34.669Z,90.60
2017-03-08T05:09:56.892Z,90.46
2017-03-08T05:10:23.540Z,90.49
2017-03-08T05:10:50.915Z,90.52
2017-03-08T05:11:12.663Z,90.37
2017-03-08T05:12:08.900Z,90.55
2017-03-08T05:12:30.929Z,90.59
2017-03-08T05:12:52.725Z,90.63
2017-03-08T05:13:19.286Z,90.55
2017-03-08T05:13:45.873Z,90.66
2017-03-08T05:14:07.726Z,90.61
2017-03-08T05:14:29.556Z,90.51
2017-03-08T05:14:51.353Z,90.32
2017-03-08T05:17:44.625Z,90.36
2017-03-08T05:18:06.403Z,90.31
2017-03-08T05:18:28.177Z,90.61
2017-03-08T05:18:53.339Z,90.52
2017-03-08T05:19:15.146Z,90.49
2017-03-08T05:19:36.953Z,90.54
2017-03-08T05:19:58.721Z,90.51
2017-03-08T05:20:20.417Z,90.64
2017-03-08T05:20:44.929Z,90.72
2017-03-08T05:21:06.624Z,90.79
2017-03-08T05:21:28.351Z,90.80
2017-03-08T05:21:50.194Z,90.82
2017-03-08T05:22:11.989Z,90.80
2017-03-08T05:22:33.718Z,90.74
2017-03-08T05:23:36.759Z,90.69
2017-03-08T05:23:58.461Z,90.73
2017-03-08T05:25:01.550Z,91.08
2017-03-08T05:25:23.288Z,91.10
2017-03-08T05:25:54.547Z,91.07
2017-03-08T05:26:16.276Z,91.21
2017-03-08T05:26:42.770Z,91.16
2017-03-08T05:27:04.464Z,91.23
2017-03-08T05:27:26.212Z,91.14
2017-03-08T05:27:52.718Z,90.96
2017-03-08T05:28:14.442Z,90.89
2017-03-08T05:28:36.187Z,90.95
2017-03-08T05:29:02.706Z,90.82
2017-03-08T05:29:24.405Z,90.89
2017-03-08T05:30:27.432Z,90.86
2017-03-08T05:30:49.139Z,91.10
2017-03-08T05:31:10.850Z,91.15
2017-03-08T05:31:32.578Z,91.10
2017-03-08T05:31:54.311Z,90.92
2017-03-08T05:33:01.591Z,90.64
2017-03-08T05:33:23.297Z,90.65
2017-03-08T05:33:45.002Z,90.77
2017-03-08T05:34:16.256Z,90.89
2017-03-08T05:34:37.948Z,90.96
2017-03-08T05:35:04.437Z,91.03
2017-03-08T05:35:26.145Z,91.08
2017-03-08T05:35:47.876Z,91.21
2017-03-08T05:36:19.144Z,91.30
2017-03-08T05:36:40.853Z,91.26
2017-03-08T05:37:07.352Z,91.04
2017-03-08T05:37:29.082Z,90.98
2017-03-08T05:38:36.411Z,91.18
2017-03-08T05:38:58.188Z,91.17
2017-03-08T05:40:01.446Z,90.83
2017-03-08T05:40:23.187Z,90.85
2017-03-08T05:40:49.768Z,90.86
2017-03-08T05:41:11.564Z,90.77
2017-03-08T05:42:19.074Z,90.87
2017-03-08T05:42:40.838Z,90.89
2017-03-08T05:43:43.922Z,90.79
2017-03-08T05:44:05.695Z,90.90
2017-03-08T05:44:32.222Z,91.00
2017-03-08T05:44:58.746Z,91.06
2017-03-08T05:45:30.024Z,90.83
2017-03-08T05:45:51.790Z,90.90
2017-03-08T05:46:13.723Z,90.85
2017-03-08T05:46:40.225Z,90.88
2017-03-08T05:47:01.980Z,90.90
2017-03-08T05:48:05.215Z,91.03
2017-03-08T05:48:36.484Z,91.01
2017-03-08T05:49:07.751Z,90.99
2017-03-08T05:49:29.478Z,90.98
2017-03-08T05:49:51.202Z,90.99
2017-03-08T05:50:12.908Z,91.04
2017-03-08T05:50:34.615Z,91.08
2017-03-08T05:50:56.374Z,90.99
2017-03-08T05:51:18.107Z,90.90
2017-03-08T05:51:39.844Z,90.83
2017-03-08T05:52:01.567Z,90.73
2017-03-08T05:52:23.299Z,90.60
2017-03-08T05:52:45.077Z,90.52
2017-03-08T05:53:06.862Z,90.64
2017-03-08T05:53:28.549Z,90.69
2017-03-08T05:53:50.273Z,90.69
2017-03-08T05:54:11.998Z,90.52
2017-03-08T05:54:43.256Z,90.55
2017-03-08T05:55:04.964Z,90.41
2017-03-08T05:55:31.455Z,90.34
2017-03-08T05:55:53.173Z,90.23
2017-03-08T05:56:19.660Z,90.13
2017-03-08T05:56:41.372Z,90.12
2017-03-08T05:57:05.966Z,90.23
2017-03-08T05:57:27.630Z,90.32
2017-03-08T05:57:49.439Z,90.34
2017-03-08T05:58:15.929Z,90.51
2017-03-08T05:58:37.651Z,90.59
2017-03-08T05:59:04.219Z,90.65
2017-03-08T05:59:25.956Z,90.62
2017-03-08T06:00:33.523Z,90.40
2017-03-08T06:00:55.232Z,90.36
2017-03-08T06:01:16.957Z,90.45
2017-03-08T06:01:48.213Z,90.47
2017-03-08T06:02:10.037Z,90.37
2017-03-08T06:03:17.378Z,90.25
2017-03-08T06:03:39.093Z,90.19
2017-03-08T06:04:46.453Z,89.98
2017-03-08T06:05:08.185Z,89.99